sensor_id;sensor_type;location;lat;lon;timestamp;P1;durP1;ratioP1;P2;durP2;ratioP2
20449;SDS011;10384;51.940;8.432;2023-05-16T00:00:34;9.87;;;4.73;;
20449;SDS011;10384;51.940;8.432;2023-05-16T00:03:00;10.03;;;4.43;;
20449;SDS011;10384;51.940;8.432;2023-05-16T00:05:30;8.23;;;4.60;;
20449;SDS011;10384;51.940;8.432;2023-05-16T00:07:56;10.03;;;4.80;;
20449;SDS011;10384;51.940;8.432;2023-05-16T00:10:22;10.27;;;4.97;;
20449;SDS011;10384;51.940;8.432;2023-05-16T00:12:48;7.40;;;3.57;;
20449;SDS011;10384;51.940;8.432;2023-05-16T00:15:17;9.87;;;5.00;;
20449;SDS011;10384;51.940;8.432;2023-05-16T00:17:44;9.73;;;5.30;;
20449;SDS011;10384;51.940;8.432;2023-05-16T00:20:11;8.57;;;4.40;;
20449;SDS011;10384;51.940;8.432;2023-05-16T00:22:38;12.97;;;5.10;;
20449;SDS011;10384;51.940;8.432;2023-05-16T00:25:04;10.20;;;4.70;;
20449;SDS011;10384;51.940;8.432;2023-05-16T00:27:30;8.53;;;4.10;;
20449;SDS011;10384;51.940;8.432;2023-05-16T00:29:56;10.30;;;5.20;;
20449;SDS011;10384;51.940;8.432;2023-05-16T00:32:22;10.87;;;4.20;;
20449;SDS011;10384;51.940;8.432;2023-05-16T00:34:48;9.07;;;3.70;;
20449;SDS011;10384;51.940;8.432;2023-05-16T00:37:14;9.57;;;4.10;;
20449;SDS011;10384;51.940;8.432;2023-05-16T00:39:40;9.97;;;5.20;;
20449;SDS011;10384;51.940;8.432;2023-05-16T00:42:06;8.30;;;3.90;;
20449;SDS011;10384;51.940;8.432;2023-05-16T00:44:32;6.53;;;3.30;;
20449;SDS011;10384;51.940;8.432;2023-05-16T00:46:58;6.87;;;3.23;;
20449;SDS011;10384;51.940;8.432;2023-05-16T00:49:26;7.27;;;2.90;;
20449;SDS011;10384;51.940;8.432;2023-05-16T00:51:52;5.73;;;3.00;;
20449;SDS011;10384;51.940;8.432;2023-05-16T00:54:21;5.27;;;2.70;;
20449;SDS011;10384;51.940;8.432;2023-05-16T00:56:47;5.90;;;2.93;;
20449;SDS011;10384;51.940;8.432;2023-05-16T00:59:13;6.37;;;3.30;;
20449;SDS011;10384;51.940;8.432;2023-05-16T01:01:39;6.47;;;3.20;;
20449;SDS011;10384;51.940;8.432;2023-05-16T01:04:06;6.23;;;3.00;;
20449;SDS011;10384;51.940;8.432;2023-05-16T01:06:32;5.80;;;3.00;;
20449;SDS011;10384;51.940;8.432;2023-05-16T01:08:58;5.57;;;2.80;;
20449;SDS011;10384;51.940;8.432;2023-05-16T01:14:23;5.97;;;2.73;;
20449;SDS011;10384;51.940;8.432;2023-05-16T01:24:55;5.90;;;2.80;;
20449;SDS011;10384;51.940;8.432;2023-05-16T01:27:26;4.87;;;2.60;;
20449;SDS011;10384;51.940;8.432;2023-05-16T01:29:56;4.93;;;2.77;;
20449;SDS011;10384;51.940;8.432;2023-05-16T01:32:22;3.63;;;2.07;;
20449;SDS011;10384;51.940;8.432;2023-05-16T01:34:51;4.90;;;2.87;;
20449;SDS011;10384;51.940;8.432;2023-05-16T01:37:26;8.63;;;5.40;;
20449;SDS011;10384;51.940;8.432;2023-05-16T01:40:02;3.73;;;2.20;;
20449;SDS011;10384;51.940;8.432;2023-05-16T01:42:32;3.33;;;2.17;;
20449;SDS011;10384;51.940;8.432;2023-05-16T01:45:19;7.87;;;3.20;;
20449;SDS011;10384;51.940;8.432;2023-05-16T01:47:48;4.30;;;2.73;;
20449;SDS011;10384;51.940;8.432;2023-05-16T01:50:17;3.70;;;2.10;;
20449;SDS011;10384;51.940;8.432;2023-05-16T01:52:49;4.53;;;2.67;;
20449;SDS011;10384;51.940;8.432;2023-05-16T01:55:30;4.43;;;2.17;;
20449;SDS011;10384;51.940;8.432;2023-05-16T01:57:57;3.67;;;1.83;;
20449;SDS011;10384;51.940;8.432;2023-05-16T02:00:23;3.43;;;1.87;;
20449;SDS011;10384;51.940;8.432;2023-05-16T02:02:49;3.67;;;2.10;;
20449;SDS011;10384;51.940;8.432;2023-05-16T02:05:15;5.43;;;2.50;;
20449;SDS011;10384;51.940;8.432;2023-05-16T02:07:41;3.40;;;1.50;;
20449;SDS011;10384;51.940;8.432;2023-05-16T02:10:08;2.40;;;1.50;;
20449;SDS011;10384;51.940;8.432;2023-05-16T02:12:35;3.37;;;1.40;;
20449;SDS011;10384;51.940;8.432;2023-05-16T02:15:01;2.27;;;1.10;;
20449;SDS011;10384;51.940;8.432;2023-05-16T02:17:27;3.67;;;1.60;;
20449;SDS011;10384;51.940;8.432;2023-05-16T02:19:53;2.80;;;1.50;;
20449;SDS011;10384;51.940;8.432;2023-05-16T02:22:19;4.57;;;2.17;;
20449;SDS011;10384;51.940;8.432;2023-05-16T02:24:45;2.73;;;1.87;;
20449;SDS011;10384;51.940;8.432;2023-05-16T02:27:11;3.00;;;1.50;;
20449;SDS011;10384;51.940;8.432;2023-05-16T02:29:37;4.43;;;2.20;;
20449;SDS011;10384;51.940;8.432;2023-05-16T02:32:03;4.40;;;1.60;;
20449;SDS011;10384;51.940;8.432;2023-05-16T02:34:29;4.00;;;2.00;;
20449;SDS011;10384;51.940;8.432;2023-05-16T02:36:55;4.43;;;1.47;;
20449;SDS011;10384;51.940;8.432;2023-05-16T02:39:21;3.80;;;1.50;;
20449;SDS011;10384;51.940;8.432;2023-05-16T02:41:47;6.80;;;1.83;;
20449;SDS011;10384;51.940;8.432;2023-05-16T02:44:13;1.50;;;1.20;;
20449;SDS011;10384;51.940;8.432;2023-05-16T02:46:39;5.03;;;2.07;;
20449;SDS011;10384;51.940;8.432;2023-05-16T02:49:05;6.37;;;1.57;;
20449;SDS011;10384;51.940;8.432;2023-05-16T02:51:31;4.27;;;2.07;;
20449;SDS011;10384;51.940;8.432;2023-05-16T02:53:57;2.27;;;1.30;;
20449;SDS011;10384;51.940;8.432;2023-05-16T02:56:26;4.43;;;1.40;;
20449;SDS011;10384;51.940;8.432;2023-05-16T02:58:53;1.80;;;1.33;;
20449;SDS011;10384;51.940;8.432;2023-05-16T03:01:19;4.67;;;1.60;;
20449;SDS011;10384;51.940;8.432;2023-05-16T03:03:45;5.30;;;1.60;;
20449;SDS011;10384;51.940;8.432;2023-05-16T03:06:11;3.50;;;1.33;;
20449;SDS011;10384;51.940;8.432;2023-05-16T03:08:37;3.03;;;1.13;;
20449;SDS011;10384;51.940;8.432;2023-05-16T03:11:03;3.47;;;1.50;;
20449;SDS011;10384;51.940;8.432;2023-05-16T03:13:30;5.30;;;1.70;;
20449;SDS011;10384;51.940;8.432;2023-05-16T03:15:57;4.23;;;1.50;;
20449;SDS011;10384;51.940;8.432;2023-05-16T03:18:23;3.30;;;1.37;;
20449;SDS011;10384;51.940;8.432;2023-05-16T03:20:49;2.83;;;1.30;;
20449;SDS011;10384;51.940;8.432;2023-05-16T03:23:16;5.13;;;1.20;;
20449;SDS011;10384;51.940;8.432;2023-05-16T03:25:42;4.23;;;1.40;;
20449;SDS011;10384;51.940;8.432;2023-05-16T03:28:10;7.63;;;2.60;;
20449;SDS011;10384;51.940;8.432;2023-05-16T03:30:36;5.37;;;1.30;;
20449;SDS011;10384;51.940;8.432;2023-05-16T03:33:02;4.17;;;1.30;;
20449;SDS011;10384;51.940;8.432;2023-05-16T03:35:29;5.70;;;1.70;;
20449;SDS011;10384;51.940;8.432;2023-05-16T03:37:55;2.37;;;1.20;;
20449;SDS011;10384;51.940;8.432;2023-05-16T03:40:21;3.83;;;1.40;;
20449;SDS011;10384;51.940;8.432;2023-05-16T03:42:47;2.80;;;1.30;;
20449;SDS011;10384;51.940;8.432;2023-05-16T03:45:14;4.53;;;1.40;;
20449;SDS011;10384;51.940;8.432;2023-05-16T03:47:40;2.00;;;1.47;;
20449;SDS011;10384;51.940;8.432;2023-05-16T03:50:06;12.47;;;2.00;;
20449;SDS011;10384;51.940;8.432;2023-05-16T03:52:33;9.03;;;2.53;;
20449;SDS011;10384;51.940;8.432;2023-05-16T03:55:00;3.83;;;1.63;;
20449;SDS011;10384;51.940;8.432;2023-05-16T03:57:29;6.47;;;1.87;;
20449;SDS011;10384;51.940;8.432;2023-05-16T03:59:55;5.37;;;1.73;;
20449;SDS011;10384;51.940;8.432;2023-05-16T04:02:21;2.80;;;1.60;;
20449;SDS011;10384;51.940;8.432;2023-05-16T04:04:47;6.57;;;1.70;;
20449;SDS011;10384;51.940;8.432;2023-05-16T04:07:13;9.23;;;1.77;;
20449;SDS011;10384;51.940;8.432;2023-05-16T04:09:39;7.43;;;1.30;;
20449;SDS011;10384;51.940;8.432;2023-05-16T04:12:05;9.20;;;1.90;;
20449;SDS011;10384;51.940;8.432;2023-05-16T04:14:33;9.27;;;1.60;;
20449;SDS011;10384;51.940;8.432;2023-05-16T04:16:59;7.60;;;2.23;;
20449;SDS011;10384;51.940;8.432;2023-05-16T04:19:25;10.83;;;2.80;;
20449;SDS011;10384;51.940;8.432;2023-05-16T04:21:51;6.87;;;2.20;;
20449;SDS011;10384;51.940;8.432;2023-05-16T04:24:18;12.43;;;2.00;;
20449;SDS011;10384;51.940;8.432;2023-05-16T04:26:44;4.97;;;2.17;;
20449;SDS011;10384;51.940;8.432;2023-05-16T04:29:10;2.83;;;1.30;;
20449;SDS011;10384;51.940;8.432;2023-05-16T04:31:38;7.27;;;1.60;;
20449;SDS011;10384;51.940;8.432;2023-05-16T04:34:04;5.30;;;1.70;;
20449;SDS011;10384;51.940;8.432;2023-05-16T04:36:30;6.63;;;2.33;;
20449;SDS011;10384;51.940;8.432;2023-05-16T04:38:56;7.50;;;1.83;;
20449;SDS011;10384;51.940;8.432;2023-05-16T04:41:22;6.63;;;1.63;;
20449;SDS011;10384;51.940;8.432;2023-05-16T04:43:49;5.27;;;1.47;;
20449;SDS011;10384;51.940;8.432;2023-05-16T04:46:15;11.67;;;1.53;;
20449;SDS011;10384;51.940;8.432;2023-05-16T04:48:41;8.53;;;2.23;;
20449;SDS011;10384;51.940;8.432;2023-05-16T04:51:07;8.37;;;1.57;;
20449;SDS011;10384;51.940;8.432;2023-05-16T04:53:33;4.40;;;1.27;;
20449;SDS011;10384;51.940;8.432;2023-05-16T04:55:59;5.27;;;1.30;;
20449;SDS011;10384;51.940;8.432;2023-05-16T04:58:25;5.43;;;1.37;;
20449;SDS011;10384;51.940;8.432;2023-05-16T05:00:51;7.87;;;1.30;;
20449;SDS011;10384;51.940;8.432;2023-05-16T05:03:17;7.70;;;1.70;;
20449;SDS011;10384;51.940;8.432;2023-05-16T05:05:43;7.53;;;1.30;;
20449;SDS011;10384;51.940;8.432;2023-05-16T05:08:10;9.83;;;1.20;;
20449;SDS011;10384;51.940;8.432;2023-05-16T05:10:36;5.30;;;1.07;;
20449;SDS011;10384;51.940;8.432;2023-05-16T05:13:02;10.27;;;1.70;;
20449;SDS011;10384;51.940;8.432;2023-05-16T05:15:28;2.63;;;1.20;;
20449;SDS011;10384;51.940;8.432;2023-05-16T05:17:54;6.33;;;1.53;;
20449;SDS011;10384;51.940;8.432;2023-05-16T05:20:20;7.53;;;1.10;;
20449;SDS011;10384;51.940;8.432;2023-05-16T05:22:46;9.73;;;1.60;;
20449;SDS011;10384;51.940;8.432;2023-05-16T05:25:12;9.27;;;1.10;;
20449;SDS011;10384;51.940;8.432;2023-05-16T05:27:38;9.90;;;2.10;;
20449;SDS011;10384;51.940;8.432;2023-05-16T05:30:05;8.53;;;1.43;;
20449;SDS011;10384;51.940;8.432;2023-05-16T05:32:31;4.77;;;1.20;;
20449;SDS011;10384;51.940;8.432;2023-05-16T05:34:57;4.53;;;1.10;;
20449;SDS011;10384;51.940;8.432;2023-05-16T05:37:24;4.63;;;1.20;;
20449;SDS011;10384;51.940;8.432;2023-05-16T05:39:50;7.90;;;1.63;;
20449;SDS011;10384;51.940;8.432;2023-05-16T05:42:16;9.63;;;1.50;;
20449;SDS011;10384;51.940;8.432;2023-05-16T05:44:42;11.17;;;2.67;;
20449;SDS011;10384;51.940;8.432;2023-05-16T05:47:08;7.43;;;1.63;;
20449;SDS011;10384;51.940;8.432;2023-05-16T05:49:34;5.73;;;1.77;;
20449;SDS011;10384;51.940;8.432;2023-05-16T05:52:00;4.87;;;1.73;;
20449;SDS011;10384;51.940;8.432;2023-05-16T05:54:26;11.80;;;2.90;;
20449;SDS011;10384;51.940;8.432;2023-05-16T05:56:54;7.50;;;1.17;;
20449;SDS011;10384;51.940;8.432;2023-05-16T05:59:20;3.90;;;0.97;;
20449;SDS011;10384;51.940;8.432;2023-05-16T06:01:46;7.93;;;1.60;;
20449;SDS011;10384;51.940;8.432;2023-05-16T06:04:16;9.00;;;1.70;;
20449;SDS011;10384;51.940;8.432;2023-05-16T06:06:42;4.27;;;1.10;;
20449;SDS011;10384;51.940;8.432;2023-05-16T06:09:08;11.33;;;1.50;;
20449;SDS011;10384;51.940;8.432;2023-05-16T06:11:34;6.80;;;1.17;;
20449;SDS011;10384;51.940;8.432;2023-05-16T06:14:00;10.50;;;1.60;;
20449;SDS011;10384;51.940;8.432;2023-05-16T06:16:26;7.50;;;1.30;;
20449;SDS011;10384;51.940;8.432;2023-05-16T06:18:52;5.03;;;1.23;;
20449;SDS011;10384;51.940;8.432;2023-05-16T06:21:18;6.17;;;1.57;;
20449;SDS011;10384;51.940;8.432;2023-05-16T06:23:44;8.37;;;1.73;;
20449;SDS011;10384;51.940;8.432;2023-05-16T06:26:10;9.97;;;2.20;;
20449;SDS011;10384;51.940;8.432;2023-05-16T06:28:36;7.50;;;1.60;;
20449;SDS011;10384;51.940;8.432;2023-05-16T06:31:03;4.90;;;1.30;;
20449;SDS011;10384;51.940;8.432;2023-05-16T06:33:28;7.67;;;1.50;;
20449;SDS011;10384;51.940;8.432;2023-05-16T06:35:55;8.83;;;1.73;;
20449;SDS011;10384;51.940;8.432;2023-05-16T06:38:21;9.13;;;1.63;;
20449;SDS011;10384;51.940;8.432;2023-05-16T06:40:47;5.70;;;1.37;;
20449;SDS011;10384;51.940;8.432;2023-05-16T06:43:13;6.70;;;1.23;;
20449;SDS011;10384;51.940;8.432;2023-05-16T06:45:39;4.97;;;1.20;;
20449;SDS011;10384;51.940;8.432;2023-05-16T06:48:05;6.30;;;1.57;;
20449;SDS011;10384;51.940;8.432;2023-05-16T06:50:31;10.17;;;1.90;;
20449;SDS011;10384;51.940;8.432;2023-05-16T06:52:59;8.17;;;1.33;;
20449;SDS011;10384;51.940;8.432;2023-05-16T06:55:25;5.23;;;1.50;;
20449;SDS011;10384;51.940;8.432;2023-05-16T06:57:51;5.50;;;1.20;;
20449;SDS011;10384;51.940;8.432;2023-05-16T07:00:17;6.73;;;1.10;;
20449;SDS011;10384;51.940;8.432;2023-05-16T07:02:43;7.70;;;1.60;;
20449;SDS011;10384;51.940;8.432;2023-05-16T07:05:09;7.37;;;1.30;;
20449;SDS011;10384;51.940;8.432;2023-05-16T07:07:35;5.97;;;1.13;;
20449;SDS011;10384;51.940;8.432;2023-05-16T07:10:02;5.90;;;1.80;;
20449;SDS011;10384;51.940;8.432;2023-05-16T07:12:28;8.00;;;1.13;;
20449;SDS011;10384;51.940;8.432;2023-05-16T07:14:54;6.17;;;1.30;;
20449;SDS011;10384;51.940;8.432;2023-05-16T07:17:20;7.40;;;1.10;;
20449;SDS011;10384;51.940;8.432;2023-05-16T07:19:46;10.27;;;2.03;;
20449;SDS011;10384;51.940;8.432;2023-05-16T07:22:12;7.60;;;1.40;;
20449;SDS011;10384;51.940;8.432;2023-05-16T07:24:38;8.53;;;1.70;;
20449;SDS011;10384;51.940;8.432;2023-05-16T07:27:04;3.93;;;1.13;;
20449;SDS011;10384;51.940;8.432;2023-05-16T07:29:30;5.53;;;1.17;;
20449;SDS011;10384;51.940;8.432;2023-05-16T07:31:56;4.60;;;1.27;;
20449;SDS011;10384;51.940;8.432;2023-05-16T07:34:22;3.90;;;1.10;;
20449;SDS011;10384;51.940;8.432;2023-05-16T07:36:48;2.90;;;1.20;;
20449;SDS011;10384;51.940;8.432;2023-05-16T07:39:14;4.40;;;1.47;;
20449;SDS011;10384;51.940;8.432;2023-05-16T07:41:40;4.40;;;1.50;;
20449;SDS011;10384;51.940;8.432;2023-05-16T07:44:06;7.20;;;1.27;;
20449;SDS011;10384;51.940;8.432;2023-05-16T07:46:32;4.83;;;1.77;;
20449;SDS011;10384;51.940;8.432;2023-05-16T07:48:58;7.60;;;1.27;;
20449;SDS011;10384;51.940;8.432;2023-05-16T07:51:24;3.00;;;1.00;;
20449;SDS011;10384;51.940;8.432;2023-05-16T07:53:50;3.63;;;1.30;;
20449;SDS011;10384;51.940;8.432;2023-05-16T07:56:16;4.37;;;1.10;;
20449;SDS011;10384;51.940;8.432;2023-05-16T07:58:42;6.43;;;1.17;;
20449;SDS011;10384;51.940;8.432;2023-05-16T08:01:08;7.40;;;1.33;;
20449;SDS011;10384;51.940;8.432;2023-05-16T08:03:35;2.27;;;1.20;;
20449;SDS011;10384;51.940;8.432;2023-05-16T08:06:01;7.83;;;1.40;;
20449;SDS011;10384;51.940;8.432;2023-05-16T08:08:27;3.93;;;1.23;;
20449;SDS011;10384;51.940;8.432;2023-05-16T08:10:53;5.87;;;1.20;;
20449;SDS011;10384;51.940;8.432;2023-05-16T08:13:19;6.37;;;0.83;;
20449;SDS011;10384;51.940;8.432;2023-05-16T08:15:45;9.07;;;1.57;;
20449;SDS011;10384;51.940;8.432;2023-05-16T08:18:12;2.10;;;0.70;;
20449;SDS011;10384;51.940;8.432;2023-05-16T08:20:39;5.77;;;1.40;;
20449;SDS011;10384;51.940;8.432;2023-05-16T08:23:05;4.83;;;1.30;;
20449;SDS011;10384;51.940;8.432;2023-05-16T08:25:31;4.40;;;0.90;;
20449;SDS011;10384;51.940;8.432;2023-05-16T08:27:58;2.57;;;1.20;;
20449;SDS011;10384;51.940;8.432;2023-05-16T08:30:25;7.53;;;1.50;;
20449;SDS011;10384;51.940;8.432;2023-05-16T08:32:51;13.13;;;1.70;;
20449;SDS011;10384;51.940;8.432;2023-05-16T08:35:17;10.17;;;2.00;;
20449;SDS011;10384;51.940;8.432;2023-05-16T08:37:43;6.23;;;1.47;;
20449;SDS011;10384;51.940;8.432;2023-05-16T08:40:10;4.80;;;1.20;;
20449;SDS011;10384;51.940;8.432;2023-05-16T08:42:36;5.50;;;1.70;;
20449;SDS011;10384;51.940;8.432;2023-05-16T08:45:02;4.73;;;1.63;;
20449;SDS011;10384;51.940;8.432;2023-05-16T08:47:30;2.73;;;0.67;;
20449;SDS011;10384;51.940;8.432;2023-05-16T08:49:56;3.80;;;0.70;;
20449;SDS011;10384;51.940;8.432;2023-05-16T08:52:23;7.07;;;1.07;;
20449;SDS011;10384;51.940;8.432;2023-05-16T08:54:52;4.40;;;1.33;;
20449;SDS011;10384;51.940;8.432;2023-05-16T08:57:18;4.83;;;0.97;;
20449;SDS011;10384;51.940;8.432;2023-05-16T08:59:44;2.67;;;0.97;;
20449;SDS011;10384;51.940;8.432;2023-05-16T09:02:11;4.40;;;1.27;;
20449;SDS011;10384;51.940;8.432;2023-05-16T09:04:37;4.63;;;0.90;;
20449;SDS011;10384;51.940;8.432;2023-05-16T09:07:03;4.63;;;0.90;;
20449;SDS011;10384;51.940;8.432;2023-05-16T09:09:29;3.20;;;0.90;;
20449;SDS011;10384;51.940;8.432;2023-05-16T09:11:55;3.90;;;0.90;;
20449;SDS011;10384;51.940;8.432;2023-05-16T09:14:21;3.53;;;1.07;;
20449;SDS011;10384;51.940;8.432;2023-05-16T09:17:04;2.07;;;0.80;;
20449;SDS011;10384;51.940;8.432;2023-05-16T09:19:39;4.87;;;0.97;;
20449;SDS011;10384;51.940;8.432;2023-05-16T09:22:07;2.60;;;0.73;;
20449;SDS011;10384;51.940;8.432;2023-05-16T09:24:37;4.67;;;1.00;;
20449;SDS011;10384;51.940;8.432;2023-05-16T09:27:10;4.63;;;1.27;;
20449;SDS011;10384;51.940;8.432;2023-05-16T09:29:38;4.50;;;1.27;;
20449;SDS011;10384;51.940;8.432;2023-05-16T09:32:11;4.10;;;0.90;;
20449;SDS011;10384;51.940;8.432;2023-05-16T09:34:47;4.73;;;1.13;;
20449;SDS011;10384;51.940;8.432;2023-05-16T09:37:15;3.50;;;0.90;;
20449;SDS011;10384;51.940;8.432;2023-05-16T09:39:49;4.73;;;1.57;;
20449;SDS011;10384;51.940;8.432;2023-05-16T09:42:15;3.07;;;1.13;;
20449;SDS011;10384;51.940;8.432;2023-05-16T09:44:45;5.63;;;1.00;;
20449;SDS011;10384;51.940;8.432;2023-05-16T09:47:13;2.63;;;0.50;;
20449;SDS011;10384;51.940;8.432;2023-05-16T09:49:40;2.60;;;0.93;;
20449;SDS011;10384;51.940;8.432;2023-05-16T09:52:06;5.27;;;1.50;;
20449;SDS011;10384;51.940;8.432;2023-05-16T09:54:32;5.80;;;0.80;;
20449;SDS011;10384;51.940;8.432;2023-05-16T09:56:59;3.60;;;0.80;;
20449;SDS011;10384;51.940;8.432;2023-05-16T09:59:29;4.97;;;1.93;;
20449;SDS011;10384;51.940;8.432;2023-05-16T10:01:56;3.90;;;1.30;;
20449;SDS011;10384;51.940;8.432;2023-05-16T10:04:25;2.67;;;0.73;;
20449;SDS011;10384;51.940;8.432;2023-05-16T10:06:53;5.83;;;0.90;;
20449;SDS011;10384;51.940;8.432;2023-05-16T10:09:23;4.20;;;1.00;;
20449;SDS011;10384;51.940;8.432;2023-05-16T10:11:50;1.97;;;0.70;;
20449;SDS011;10384;51.940;8.432;2023-05-16T10:14:17;2.53;;;0.93;;
20449;SDS011;10384;51.940;8.432;2023-05-16T10:16:45;3.97;;;0.97;;
20449;SDS011;10384;51.940;8.432;2023-05-16T10:19:12;2.43;;;0.90;;
20449;SDS011;10384;51.940;8.432;2023-05-16T10:21:38;1.37;;;0.80;;
20449;SDS011;10384;51.940;8.432;2023-05-16T10:24:05;3.83;;;0.73;;
20449;SDS011;10384;51.940;8.432;2023-05-16T10:26:32;2.53;;;1.47;;
20449;SDS011;10384;51.940;8.432;2023-05-16T10:28:59;3.40;;;1.33;;
20449;SDS011;10384;51.940;8.432;2023-05-16T10:31:26;5.83;;;0.93;;
20449;SDS011;10384;51.940;8.432;2023-05-16T10:33:53;6.97;;;1.27;;
20449;SDS011;10384;51.940;8.432;2023-05-16T10:36:20;4.43;;;0.80;;
20449;SDS011;10384;51.940;8.432;2023-05-16T10:38:47;4.80;;;1.70;;
20449;SDS011;10384;51.940;8.432;2023-05-16T10:41:13;5.90;;;1.10;;
20449;SDS011;10384;51.940;8.432;2023-05-16T10:43:39;3.47;;;1.27;;
20449;SDS011;10384;51.940;8.432;2023-05-16T10:46:09;5.90;;;1.17;;
20449;SDS011;10384;51.940;8.432;2023-05-16T10:48:36;4.77;;;0.93;;
20449;SDS011;10384;51.940;8.432;2023-05-16T10:51:03;2.47;;;0.70;;
20449;SDS011;10384;51.940;8.432;2023-05-16T10:53:33;4.73;;;1.63;;
20449;SDS011;10384;51.940;8.432;2023-05-16T11:06:28;3.97;;;1.40;;
20449;SDS011;10384;51.940;8.432;2023-05-16T11:14:38;4.30;;;1.07;;
20449;SDS011;10384;51.940;8.432;2023-05-16T11:17:12;1.90;;;0.70;;
20449;SDS011;10384;51.940;8.432;2023-05-16T11:24:53;4.80;;;0.90;;
20449;SDS011;10384;51.940;8.432;2023-05-16T11:27:23;5.30;;;1.20;;
20449;SDS011;10384;51.940;8.432;2023-05-16T11:29:49;5.47;;;1.13;;
20449;SDS011;10384;51.940;8.432;2023-05-16T11:32:18;4.43;;;1.33;;
20449;SDS011;10384;51.940;8.432;2023-05-16T11:34:45;3.47;;;1.30;;
20449;SDS011;10384;51.940;8.432;2023-05-16T11:37:13;8.17;;;1.10;;
20449;SDS011;10384;51.940;8.432;2023-05-16T11:39:39;5.87;;;0.90;;
20449;SDS011;10384;51.940;8.432;2023-05-16T11:42:05;4.57;;;0.90;;
20449;SDS011;10384;51.940;8.432;2023-05-16T11:44:31;3.10;;;0.87;;
20449;SDS011;10384;51.940;8.432;2023-05-16T11:46:58;3.67;;;0.80;;
20449;SDS011;10384;51.940;8.432;2023-05-16T11:49:26;7.10;;;1.20;;
20449;SDS011;10384;51.940;8.432;2023-05-16T11:51:55;3.63;;;0.80;;
20449;SDS011;10384;51.940;8.432;2023-05-16T11:54:24;3.27;;;0.90;;
20449;SDS011;10384;51.940;8.432;2023-05-16T11:56:50;3.17;;;0.70;;
20449;SDS011;10384;51.940;8.432;2023-05-16T11:59:16;1.77;;;0.60;;
20449;SDS011;10384;51.940;8.432;2023-05-16T12:01:43;7.30;;;2.17;;
20449;SDS011;10384;51.940;8.432;2023-05-16T12:04:13;4.87;;;1.10;;
20449;SDS011;10384;51.940;8.432;2023-05-16T12:06:39;2.60;;;0.80;;
20449;SDS011;10384;51.940;8.432;2023-05-16T12:09:10;1.37;;;0.50;;
20449;SDS011;10384;51.940;8.432;2023-05-16T12:11:41;2.67;;;0.80;;
20449;SDS011;10384;51.940;8.432;2023-05-16T12:14:07;3.93;;;0.80;;
20449;SDS011;10384;51.940;8.432;2023-05-16T12:16:34;4.67;;;1.00;;
20449;SDS011;10384;51.940;8.432;2023-05-16T12:19:01;4.53;;;0.90;;
20449;SDS011;10384;51.940;8.432;2023-05-16T12:21:28;2.90;;;0.83;;
20449;SDS011;10384;51.940;8.432;2023-05-16T12:23:55;1.90;;;1.00;;
20449;SDS011;10384;51.940;8.432;2023-05-16T12:26:32;4.17;;;1.07;;
20449;SDS011;10384;51.940;8.432;2023-05-16T12:29:01;3.20;;;0.73;;
20449;SDS011;10384;51.940;8.432;2023-05-16T12:31:29;2.90;;;0.90;;
20449;SDS011;10384;51.940;8.432;2023-05-16T12:33:56;0.80;;;0.77;;
20449;SDS011;10384;51.940;8.432;2023-05-16T12:36:23;4.03;;;0.90;;
20449;SDS011;10384;51.940;8.432;2023-05-16T12:38:49;8.67;;;1.20;;
20449;SDS011;10384;51.940;8.432;2023-05-16T12:41:22;3.83;;;1.20;;
20449;SDS011;10384;51.940;8.432;2023-05-16T12:43:48;4.93;;;1.00;;
20449;SDS011;10384;51.940;8.432;2023-05-16T12:46:14;3.00;;;0.80;;
20449;SDS011;10384;51.940;8.432;2023-05-16T12:48:41;2.43;;;0.70;;
20449;SDS011;10384;51.940;8.432;2023-05-16T12:51:14;2.33;;;1.30;;
20449;SDS011;10384;51.940;8.432;2023-05-16T12:53:49;5.10;;;0.90;;
20449;SDS011;10384;51.940;8.432;2023-05-16T12:56:15;6.97;;;1.40;;
20449;SDS011;10384;51.940;8.432;2023-05-16T12:58:41;4.27;;;1.40;;
20449;SDS011;10384;51.940;8.432;2023-05-16T13:01:08;6.30;;;0.97;;
20449;SDS011;10384;51.940;8.432;2023-05-16T13:03:34;5.10;;;1.27;;
20449;SDS011;10384;51.940;8.432;2023-05-16T13:06:00;5.53;;;1.00;;
20449;SDS011;10384;51.940;8.432;2023-05-16T13:08:28;1.60;;;0.73;;
20449;SDS011;10384;51.940;8.432;2023-05-16T13:10:54;4.87;;;1.50;;
20449;SDS011;10384;51.940;8.432;2023-05-16T13:13:20;4.27;;;1.00;;
20449;SDS011;10384;51.940;8.432;2023-05-16T13:15:46;2.03;;;0.90;;
20449;SDS011;10384;51.940;8.432;2023-05-16T13:18:13;2.73;;;0.87;;
20449;SDS011;10384;51.940;8.432;2023-05-16T13:20:39;1.17;;;0.83;;
20449;SDS011;10384;51.940;8.432;2023-05-16T13:23:05;3.70;;;0.90;;
20449;SDS011;10384;51.940;8.432;2023-05-16T13:25:32;4.13;;;0.73;;
20449;SDS011;10384;51.940;8.432;2023-05-16T13:27:58;5.50;;;0.90;;
20449;SDS011;10384;51.940;8.432;2023-05-16T13:30:24;4.70;;;1.00;;
20449;SDS011;10384;51.940;8.432;2023-05-16T13:32:50;5.17;;;1.00;;
20449;SDS011;10384;51.940;8.432;2023-05-16T13:35:17;9.30;;;1.50;;
20449;SDS011;10384;51.940;8.432;2023-05-16T13:37:43;4.70;;;1.10;;
20449;SDS011;10384;51.940;8.432;2023-05-16T13:40:09;3.17;;;1.37;;
20449;SDS011;10384;51.940;8.432;2023-05-16T13:42:36;6.95;;;1.55;;
20449;SDS011;10384;51.940;8.432;2023-05-16T13:45:02;2.83;;;0.97;;
20449;SDS011;10384;51.940;8.432;2023-05-16T13:47:28;2.07;;;0.83;;
20449;SDS011;10384;51.940;8.432;2023-05-16T13:49:55;4.50;;;0.70;;
20449;SDS011;10384;51.940;8.432;2023-05-16T13:52:21;1.67;;;0.80;;
20449;SDS011;10384;51.940;8.432;2023-05-16T13:54:47;3.63;;;1.13;;
20449;SDS011;10384;51.940;8.432;2023-05-16T13:57:13;4.53;;;1.03;;
20449;SDS011;10384;51.940;8.432;2023-05-16T13:59:39;3.37;;;1.27;;
20449;SDS011;10384;51.940;8.432;2023-05-16T14:02:05;4.33;;;0.80;;
20449;SDS011;10384;51.940;8.432;2023-05-16T14:04:31;2.13;;;0.70;;
20449;SDS011;10384;51.940;8.432;2023-05-16T14:06:57;4.90;;;1.00;;
20449;SDS011;10384;51.940;8.432;2023-05-16T14:09:23;5.70;;;1.43;;
20449;SDS011;10384;51.940;8.432;2023-05-16T14:11:49;4.10;;;1.20;;
20449;SDS011;10384;51.940;8.432;2023-05-16T14:14:15;3.80;;;0.70;;
20449;SDS011;10384;51.940;8.432;2023-05-16T14:16:41;5.47;;;1.27;;
20449;SDS011;10384;51.940;8.432;2023-05-16T14:19:10;5.37;;;1.00;;
20449;SDS011;10384;51.940;8.432;2023-05-16T14:21:36;5.47;;;1.00;;
20449;SDS011;10384;51.940;8.432;2023-05-16T14:24:02;3.00;;;1.00;;
20449;SDS011;10384;51.940;8.432;2023-05-16T14:26:28;5.63;;;1.07;;
20449;SDS011;10384;51.940;8.432;2023-05-16T14:28:56;3.13;;;0.70;;
20449;SDS011;10384;51.940;8.432;2023-05-16T14:31:22;1.83;;;1.10;;
20449;SDS011;10384;51.940;8.432;2023-05-16T14:33:48;3.57;;;0.87;;
20449;SDS011;10384;51.940;8.432;2023-05-16T14:36:14;2.23;;;0.80;;
20449;SDS011;10384;51.940;8.432;2023-05-16T14:38:40;2.50;;;1.00;;
20449;SDS011;10384;51.940;8.432;2023-05-16T14:41:06;5.07;;;1.33;;
20449;SDS011;10384;51.940;8.432;2023-05-16T14:43:32;3.53;;;0.90;;
20449;SDS011;10384;51.940;8.432;2023-05-16T14:45:58;3.73;;;1.37;;
20449;SDS011;10384;51.940;8.432;2023-05-16T14:48:25;2.63;;;0.60;;
20449;SDS011;10384;51.940;8.432;2023-05-16T14:50:51;3.97;;;0.93;;
20449;SDS011;10384;51.940;8.432;2023-05-16T14:53:17;4.57;;;0.73;;
20449;SDS011;10384;51.940;8.432;2023-05-16T14:55:43;6.00;;;1.30;;
20449;SDS011;10384;51.940;8.432;2023-05-16T14:58:09;2.33;;;0.77;;
20449;SDS011;10384;51.940;8.432;2023-05-16T15:00:35;6.57;;;0.90;;
20449;SDS011;10384;51.940;8.432;2023-05-16T15:03:01;5.93;;;0.90;;
20449;SDS011;10384;51.940;8.432;2023-05-16T15:05:27;4.70;;;1.20;;
20449;SDS011;10384;51.940;8.432;2023-05-16T15:07:53;6.70;;;1.33;;
20449;SDS011;10384;51.940;8.432;2023-05-16T15:10:19;4.80;;;1.10;;
20449;SDS011;10384;51.940;8.432;2023-05-16T15:12:45;7.63;;;1.30;;
20449;SDS011;10384;51.940;8.432;2023-05-16T15:15:11;3.10;;;1.60;;
20449;SDS011;10384;51.940;8.432;2023-05-16T15:17:39;3.93;;;0.70;;